sensor_id;sensor_type;location;lat;lon;timestamp;temperature;humidity
44063;DHT22;29727;47.606;19.130;2022-07-29T00:02:14;25.20;54.70
44063;DHT22;29727;47.606;19.130;2022-07-29T00:04:39;25.20;53.80
44063;DHT22;29727;47.606;19.130;2022-07-29T00:07:05;25.20;53.30
44063;DHT22;29727;47.606;19.130;2022-07-29T00:09:31;25.20;54.00
44063;DHT22;29727;47.606;19.130;2022-07-29T00:11:59;25.20;54.70
44063;DHT22;29727;47.606;19.130;2022-07-29T00:14:25;25.20;54.60
44063;DHT22;29727;47.606;19.130;2022-07-29T00:16:51;25.20;54.90
44063;DHT22;29727;47.606;19.130;2022-07-29T00:19:17;25.20;54.90
44063;DHT22;29727;47.606;19.130;2022-07-29T00:21:42;25.20;55.20
44063;DHT22;29727;47.606;19.130;2022-07-29T00:24:08;25.20;55.60
44063;DHT22;29727;47.606;19.130;2022-07-29T00:26:34;25.30;56.60
44063;DHT22;29727;47.606;19.130;2022-07-29T00:29:00;25.30;55.50
44063;DHT22;29727;47.606;19.130;2022-07-29T00:31:26;25.20;56.10
44063;DHT22;29727;47.606;19.130;2022-07-29T00:33:53;25.20;55.60
44063;DHT22;29727;47.606;19.130;2022-07-29T00:36:19;25.30;55.70
44063;DHT22;29727;47.606;19.130;2022-07-29T00:38:47;25.20;56.00
44063;DHT22;29727;47.606;19.130;2022-07-29T00:41:13;25.20;55.90
44063;DHT22;29727;47.606;19.130;2022-07-29T00:43:39;25.20;56.10
44063;DHT22;29727;47.606;19.130;2022-07-29T00:46:04;25.20;56.30
44063;DHT22;29727;47.606;19.130;2022-07-29T00:48:30;25.10;56.80
44063;DHT22;29727;47.606;19.130;2022-07-29T00:50:57;25.10;57.10
44063;DHT22;29727;47.606;19.130;2022-07-29T00:53:24;25.10;57.20
44063;DHT22;29727;47.606;19.130;2022-07-29T00:55:50;25.00;57.10
44063;DHT22;29727;47.606;19.130;2022-07-29T00:58:16;25.00;57.30
44063;DHT22;29727;47.606;19.130;2022-07-29T01:00:43;25.00;56.90
44063;DHT22;29727;47.606;19.130;2022-07-29T01:03:09;24.90;57.40
44063;DHT22;29727;47.606;19.130;2022-07-29T01:05:35;24.80;55.80
44063;DHT22;29727;47.606;19.130;2022-07-29T01:08:01;24.80;56.30
44063;DHT22;29727;47.606;19.130;2022-07-29T01:10:28;24.80;56.50
44063;DHT22;29727;47.606;19.130;2022-07-29T01:12:57;24.80;55.80
44063;DHT22;29727;47.606;19.130;2022-07-29T01:15:24;24.80;56.30
44063;DHT22;29727;47.606;19.130;2022-07-29T01:20:36;24.80;55.30
44063;DHT22;29727;47.606;19.130;2022-07-29T01:31:48;24.80;54.30
44063;DHT22;29727;47.606;19.130;2022-07-29T01:34:22;24.80;54.30
44063;DHT22;29727;47.606;19.130;2022-07-29T01:36:55;24.80;54.20
44063;DHT22;29727;47.606;19.130;2022-07-29T01:39:31;24.80;54.00
44063;DHT22;29727;47.606;19.130;2022-07-29T01:42:00;24.80;54.10
44063;DHT22;29727;47.606;19.130;2022-07-29T01:44:34;24.80;54.40
44063;DHT22;29727;47.606;19.130;2022-07-29T01:47:06;24.70;54.80
44063;DHT22;29727;47.606;19.130;2022-07-29T01:49:36;24.70;54.30
44063;DHT22;29727;47.606;19.130;2022-07-29T01:52:13;24.80;54.80
44063;DHT22;29727;47.606;19.130;2022-07-29T01:54:51;24.70;54.70
44063;DHT22;29727;47.606;19.130;2022-07-29T01:57:19;24.70;54.90
44063;DHT22;29727;47.606;19.130;2022-07-29T01:59:47;24.70;55.20
44063;DHT22;29727;47.606;19.130;2022-07-29T02:02:17;24.70;55.00
44063;DHT22;29727;47.606;19.130;2022-07-29T02:04:44;24.70;55.10
44063;DHT22;29727;47.606;19.130;2022-07-29T02:07:16;24.70;54.40
44063;DHT22;29727;47.606;19.130;2022-07-29T02:09:43;24.60;54.90
44063;DHT22;29727;47.606;19.130;2022-07-29T02:12:11;24.60;54.80
44063;DHT22;29727;47.606;19.130;2022-07-29T02:14:42;24.60;55.30
44063;DHT22;29727;47.606;19.130;2022-07-29T02:17:11;24.60;55.80
44063;DHT22;29727;47.606;19.130;2022-07-29T02:19:37;24.50;56.70
44063;DHT22;29727;47.606;19.130;2022-07-29T02:22:04;24.50;57.40
44063;DHT22;29727;47.606;19.130;2022-07-29T02:24:33;24.50;57.80
44063;DHT22;29727;47.606;19.130;2022-07-29T02:27:00;24.50;58.20
44063;DHT22;29727;47.606;19.130;2022-07-29T02:29:28;24.40;58.80
44063;DHT22;29727;47.606;19.130;2022-07-29T02:31:57;24.40;58.70
44063;DHT22;29727;47.606;19.130;2022-07-29T02:34:25;24.40;59.00
44063;DHT22;29727;47.606;19.130;2022-07-29T02:36:51;24.40;59.30
44063;DHT22;29727;47.606;19.130;2022-07-29T02:39:18;25.00;59.50
44063;DHT22;29727;47.606;19.130;2022-07-29T02:41:52;24.30;59.60
44063;DHT22;29727;47.606;19.130;2022-07-29T02:44:21;24.30;59.90
44063;DHT22;29727;47.606;19.130;2022-07-29T02:49:36;24.20;60.00
44063;DHT22;29727;47.606;19.130;2022-07-29T02:52:23;24.20;60.20
44063;DHT22;29727;47.606;19.130;2022-07-29T02:55:02;24.20;60.40
44063;DHT22;29727;47.606;19.130;2022-07-29T02:57:35;24.20;60.70
44063;DHT22;29727;47.606;19.130;2022-07-29T03:00:06;24.10;60.70
44063;DHT22;29727;47.606;19.130;2022-07-29T03:02:38;24.00;60.60
44063;DHT22;29727;47.606;19.130;2022-07-29T03:05:07;24.00;61.00
44063;DHT22;29727;47.606;19.130;2022-07-29T03:07:34;24.00;60.10
44063;DHT22;29727;47.606;19.130;2022-07-29T03:10:01;23.90;60.10
44063;DHT22;29727;47.606;19.130;2022-07-29T03:12:28;23.90;60.40
44063;DHT22;29727;47.606;19.130;2022-07-29T03:14:56;23.90;60.40
44063;DHT22;29727;47.606;19.130;2022-07-29T03:17:22;23.90;59.60
44063;DHT22;29727;47.606;19.130;2022-07-29T03:19:48;23.80;59.80
44063;DHT22;29727;47.606;19.130;2022-07-29T03:22:14;23.80;59.90
44063;DHT22;29727;47.606;19.130;2022-07-29T03:24:40;23.80;59.80
44063;DHT22;29727;47.606;19.130;2022-07-29T03:27:06;23.80;60.40
44063;DHT22;29727;47.606;19.130;2022-07-29T03:29:32;23.70;60.10
44063;DHT22;29727;47.606;19.130;2022-07-29T03:31:58;23.70;60.60
44063;DHT22;29727;47.606;19.130;2022-07-29T03:34:23;23.60;60.60
44063;DHT22;29727;47.606;19.130;2022-07-29T03:36:49;23.60;61.10
44063;DHT22;29727;47.606;19.130;2022-07-29T03:39:19;23.60;61.10
44063;DHT22;29727;47.606;19.130;2022-07-29T03:41:48;23.60;60.80
44063;DHT22;29727;47.606;19.130;2022-07-29T03:44:16;23.50;60.10
44063;DHT22;29727;47.606;19.130;2022-07-29T03:46:43;23.50;60.90
44063;DHT22;29727;47.606;19.130;2022-07-29T03:49:11;23.50;61.10
44063;DHT22;29727;47.606;19.130;2022-07-29T03:51:38;23.50;60.70
44063;DHT22;29727;47.606;19.130;2022-07-29T03:54:04;23.50;60.50
44063;DHT22;29727;47.606;19.130;2022-07-29T03:56:32;23.50;61.30
44063;DHT22;29727;47.606;19.130;2022-07-29T03:59:02;23.50;61.00
44063;DHT22;29727;47.606;19.130;2022-07-29T04:01:29;23.50;60.90
44063;DHT22;29727;47.606;19.130;2022-07-29T04:03:55;23.50;61.90
44063;DHT22;29727;47.606;19.130;2022-07-29T04:06:21;23.40;60.60
44063;DHT22;29727;47.606;19.130;2022-07-29T04:08:47;23.50;61.50
44063;DHT22;29727;47.606;19.130;2022-07-29T04:11:12;23.40;62.00
44063;DHT22;29727;47.606;19.130;2022-07-29T04:13:38;23.50;62.70
44063;DHT22;29727;47.606;19.130;2022-07-29T04:16:04;23.40;62.20
44063;DHT22;29727;47.606;19.130;2022-07-29T04:18:30;23.40;61.30
44063;DHT22;29727;47.606;19.130;2022-07-29T04:20:55;23.40;61.10
44063;DHT22;29727;47.606;19.130;2022-07-29T04:23:21;23.40;62.00
44063;DHT22;29727;47.606;19.130;2022-07-29T04:25:47;23.40;62.70
44063;DHT22;29727;47.606;19.130;2022-07-29T04:28:13;23.50;62.60
44063;DHT22;29727;47.606;19.130;2022-07-29T04:30:39;23.50;62.60
44063;DHT22;29727;47.606;19.130;2022-07-29T04:33:06;23.50;62.60
44063;DHT22;29727;47.606;19.130;2022-07-29T04:35:36;23.50;63.00
44063;DHT22;29727;47.606;19.130;2022-07-29T04:38:04;23.50;62.50
44063;DHT22;29727;47.606;19.130;2022-07-29T04:40:30;23.50;62.70
44063;DHT22;29727;47.606;19.130;2022-07-29T04:42:56;23.60;62.30
44063;DHT22;29727;47.606;19.130;2022-07-29T04:45:22;23.60;62.50
44063;DHT22;29727;47.606;19.130;2022-07-29T04:47:47;23.60;62.10
44063;DHT22;29727;47.606;19.130;2022-07-29T04:50:13;23.60;61.40
44063;DHT22;29727;47.606;19.130;2022-07-29T04:52:39;23.60;61.80
44063;DHT22;29727;47.606;19.130;2022-07-29T04:55:05;23.60;61.60
44063;DHT22;29727;47.606;19.130;2022-07-29T04:57:31;23.70;61.60
44063;DHT22;29727;47.606;19.130;2022-07-29T04:59:57;23.70;61.80
44063;DHT22;29727;47.606;19.130;2022-07-29T05:02:22;23.70;62.60
44063;DHT22;29727;47.606;19.130;2022-07-29T05:04:48;23.80;62.80
44063;DHT22;29727;47.606;19.130;2022-07-29T05:07:14;23.80;62.40
44063;DHT22;29727;47.606;19.130;2022-07-29T05:09:40;23.80;62.80
44063;DHT22;29727;47.606;19.130;2022-07-29T05:12:07;23.80;62.80
44063;DHT22;29727;47.606;19.130;2022-07-29T05:14:33;23.80;62.50
44063;DHT22;29727;47.606;19.130;2022-07-29T05:16:59;23.90;62.50
44063;DHT22;29727;47.606;19.130;2022-07-29T05:19:24;23.90;62.60
44063;DHT22;29727;47.606;19.130;2022-07-29T05:21:50;23.90;62.50
44063;DHT22;29727;47.606;19.130;2022-07-29T05:24:16;23.90;62.60
44063;DHT22;29727;47.606;19.130;2022-07-29T05:26:42;23.90;62.90
44063;DHT22;29727;47.606;19.130;2022-07-29T05:29:08;24.00;62.20
44063;DHT22;29727;47.606;19.130;2022-07-29T05:31:34;23.90;62.70
44063;DHT22;29727;47.606;19.130;2022-07-29T05:34:00;24.00;62.70
44063;DHT22;29727;47.606;19.130;2022-07-29T05:36:26;24.00;62.70
44063;DHT22;29727;47.606;19.130;2022-07-29T05:38:51;24.10;61.30
44063;DHT22;29727;47.606;19.130;2022-07-29T05:41:18;24.10;60.60
44063;DHT22;29727;47.606;19.130;2022-07-29T05:43:44;24.20;59.20
44063;DHT22;29727;47.606;19.130;2022-07-29T05:46:10;24.20;59.10
44063;DHT22;29727;47.606;19.130;2022-07-29T05:48:35;24.30;59.40
44063;DHT22;29727;47.606;19.130;2022-07-29T05:53:27;24.30;58.00
44063;DHT22;29727;47.606;19.130;2022-07-29T05:55:53;24.40;58.10
44063;DHT22;29727;47.606;19.130;2022-07-29T05:58:19;24.40;58.30
44063;DHT22;29727;47.606;19.130;2022-07-29T06:00:45;24.50;58.00
44063;DHT22;29727;47.606;19.130;2022-07-29T06:03:11;24.50;57.80
44063;DHT22;29727;47.606;19.130;2022-07-29T06:05:37;24.60;57.50
44063;DHT22;29727;47.606;19.130;2022-07-29T06:08:03;24.60;58.00
44063;DHT22;29727;47.606;19.130;2022-07-29T06:10:31;24.70;57.50
44063;DHT22;29727;47.606;19.130;2022-07-29T06:12:56;24.80;56.70
44063;DHT22;29727;47.606;19.130;2022-07-29T06:15:22;24.80;56.40
44063;DHT22;29727;47.606;19.130;2022-07-29T06:17:48;24.90;56.80
44063;DHT22;29727;47.606;19.130;2022-07-29T06:20:13;25.00;56.30
44063;DHT22;29727;47.606;19.130;2022-07-29T06:22:39;25.10;55.60
44063;DHT22;29727;47.606;19.130;2022-07-29T06:25:05;25.20;55.10
44063;DHT22;29727;47.606;19.130;2022-07-29T06:27:31;25.20;55.40
44063;DHT22;29727;47.606;19.130;2022-07-29T06:29:57;25.30;55.80
44063;DHT22;29727;47.606;19.130;2022-07-29T06:32:22;25.40;55.80
44063;DHT22;29727;47.606;19.130;2022-07-29T06:34:48;25.50;55.70
44063;DHT22;29727;47.606;19.130;2022-07-29T06:37:14;25.60;55.20
44063;DHT22;29727;47.606;19.130;2022-07-29T06:39:39;25.70;55.80
44063;DHT22;29727;47.606;19.130;2022-07-29T06:42:06;25.70;55.10
44063;DHT22;29727;47.606;19.130;2022-07-29T06:44:32;25.80;54.30
44063;DHT22;29727;47.606;19.130;2022-07-29T06:47:01;25.90;53.90
44063;DHT22;29727;47.606;19.130;2022-07-29T06:49:28;26.00;52.80
44063;DHT22;29727;47.606;19.130;2022-07-29T06:51:54;26.10;54.90
44063;DHT22;29727;47.606;19.130;2022-07-29T06:54:20;26.20;54.60
44063;DHT22;29727;47.606;19.130;2022-07-29T06:56:47;26.30;53.40
44063;DHT22;29727;47.606;19.130;2022-07-29T06:59:13;26.30;53.20
44063;DHT22;29727;47.606;19.130;2022-07-29T07:01:41;26.40;52.30
44063;DHT22;29727;47.606;19.130;2022-07-29T07:04:08;26.50;53.50
44063;DHT22;29727;47.606;19.130;2022-07-29T07:06:34;26.60;53.80
44063;DHT22;29727;47.606;19.130;2022-07-29T07:09:00;26.80;52.90
44063;DHT22;29727;47.606;19.130;2022-07-29T07:11:27;26.90;51.40
44063;DHT22;29727;47.606;19.130;2022-07-29T07:13:52;27.00;51.30
44063;DHT22;29727;47.606;19.130;2022-07-29T07:16:18;27.10;52.30
44063;DHT22;29727;47.606;19.130;2022-07-29T07:18:44;27.20;51.20
44063;DHT22;29727;47.606;19.130;2022-07-29T07:21:11;27.30;50.50
44063;DHT22;29727;47.606;19.130;2022-07-29T07:23:37;27.40;50.40
44063;DHT22;29727;47.606;19.130;2022-07-29T07:26:03;27.40;50.20
44063;DHT22;29727;47.606;19.130;2022-07-29T07:28:30;27.50;50.50
44063;DHT22;29727;47.606;19.130;2022-07-29T07:30:56;27.60;50.40
44063;DHT22;29727;47.606;19.130;2022-07-29T07:33:21;27.70;49.70
44063;DHT22;29727;47.606;19.130;2022-07-29T07:35:47;27.70;50.30
44063;DHT22;29727;47.606;19.130;2022-07-29T07:38:13;27.80;50.10
44063;DHT22;29727;47.606;19.130;2022-07-29T07:40:39;28.00;51.10
44063;DHT22;29727;47.606;19.130;2022-07-29T07:43:05;28.10;49.30
44063;DHT22;29727;47.606;19.130;2022-07-29T07:45:31;28.10;48.50
44063;DHT22;29727;47.606;19.130;2022-07-29T07:47:58;28.30;48.70
44063;DHT22;29727;47.606;19.130;2022-07-29T07:50:24;28.40;49.70
44063;DHT22;29727;47.606;19.130;2022-07-29T07:52:54;28.50;49.80
44063;DHT22;29727;47.606;19.130;2022-07-29T07:55:23;28.60;49.90
44063;DHT22;29727;47.606;19.130;2022-07-29T07:57:48;28.60;47.90
44063;DHT22;29727;47.606;19.130;2022-07-29T08:00:16;28.80;47.80
44063;DHT22;29727;47.606;19.130;2022-07-29T08:02:42;28.80;48.90
44063;DHT22;29727;47.606;19.130;2022-07-29T08:05:08;29.00;47.40
44063;DHT22;29727;47.606;19.130;2022-07-29T08:07:34;29.00;47.50
44063;DHT22;29727;47.606;19.130;2022-07-29T08:10:00;29.10;47.70
44063;DHT22;29727;47.606;19.130;2022-07-29T08:12:25;29.20;48.60
44063;DHT22;29727;47.606;19.130;2022-07-29T08:14:51;29.40;48.20
44063;DHT22;29727;47.606;19.130;2022-07-29T08:17:19;29.50;47.30
44063;DHT22;29727;47.606;19.130;2022-07-29T08:19:45;29.60;47.40
44063;DHT22;29727;47.606;19.130;2022-07-29T08:22:11;29.60;47.90
44063;DHT22;29727;47.606;19.130;2022-07-29T08:24:36;29.80;48.50
44063;DHT22;29727;47.606;19.130;2022-07-29T08:27:11;29.80;48.50
44063;DHT22;29727;47.606;19.130;2022-07-29T08:29:37;29.90;48.20
44063;DHT22;29727;47.606;19.130;2022-07-29T08:32:05;30.10;46.40
44063;DHT22;29727;47.606;19.130;2022-07-29T08:34:31;30.20;47.20
44063;DHT22;29727;47.606;19.130;2022-07-29T08:36:57;30.30;46.80
44063;DHT22;29727;47.606;19.130;2022-07-29T08:39:23;30.40;46.30
44063;DHT22;29727;47.606;19.130;2022-07-29T08:41:50;30.50;45.40
44063;DHT22;29727;47.606;19.130;2022-07-29T08:44:20;30.60;45.00
44063;DHT22;29727;47.606;19.130;2022-07-29T08:46:47;30.60;44.80
44063;DHT22;29727;47.606;19.130;2022-07-29T08:49:13;30.70;45.20
44063;DHT22;29727;47.606;19.130;2022-07-29T08:51:40;30.70;44.60
44063;DHT22;29727;47.606;19.130;2022-07-29T08:54:09;30.80;43.40
44063;DHT22;29727;47.606;19.130;2022-07-29T08:56:35;30.90;43.80
44063;DHT22;29727;47.606;19.130;2022-07-29T08:59:05;31.00;45.30
44063;DHT22;29727;47.606;19.130;2022-07-29T09:01:33;31.10;45.30
44063;DHT22;29727;47.606;19.130;2022-07-29T09:03:59;31.20;45.00
44063;DHT22;29727;47.606;19.130;2022-07-29T09:06:31;31.30;45.10
44063;DHT22;29727;47.606;19.130;2022-07-29T09:08:59;31.40;43.80
44063;DHT22;29727;47.606;19.130;2022-07-29T09:11:25;31.50;44.70
44063;DHT22;29727;47.606;19.130;2022-07-29T09:13:51;31.60;44.10
44063;DHT22;29727;47.606;19.130;2022-07-29T09:16:16;31.80;44.00
44063;DHT22;29727;47.606;19.130;2022-07-29T09:18:45;31.90;42.80
44063;DHT22;29727;47.606;19.130;2022-07-29T09:21:16;31.90;43.50
44063;DHT22;29727;47.606;19.130;2022-07-29T09:24:06;32.10;42.20
44063;DHT22;29727;47.606;19.130;2022-07-29T09:26:32;32.20;42.30
44063;DHT22;29727;47.606;19.130;2022-07-29T09:28:59;32.30;42.90
44063;DHT22;29727;47.606;19.130;2022-07-29T09:31:45;32.40;42.20
44063;DHT22;29727;47.606;19.130;2022-07-29T09:34:13;32.50;41.80
44063;DHT22;29727;47.606;19.130;2022-07-29T09:36:49;32.60;41.80
44063;DHT22;29727;47.606;19.130;2022-07-29T09:39:35;32.60;42.80
44063;DHT22;29727;47.606;19.130;2022-07-29T09:42:06;32.70;40.20
44063;DHT22;29727;47.606;19.130;2022-07-29T09:47:10;32.90;40.40
44063;DHT22;29727;47.606;19.130;2022-07-29T09:49:58;32.90;40.40
44063;DHT22;29727;47.606;19.130;2022-07-29T09:52:29;33.00;40.40
44063;DHT22;29727;47.606;19.130;2022-07-29T09:55:09;33.10;41.00
44063;DHT22;29727;47.606;19.130;2022-07-29T09:57:35;33.10;39.30
44063;DHT22;29727;47.606;19.130;2022-07-29T10:00:05;33.20;39.30
44063;DHT22;29727;47.606;19.130;2022-07-29T10:02:34;33.30;39.20
44063;DHT22;29727;47.606;19.130;2022-07-29T10:05:03;33.40;38.70
44063;DHT22;29727;47.606;19.130;2022-07-29T10:10:10;33.50;39.40
44063;DHT22;29727;47.606;19.130;2022-07-29T10:12:58;33.60;38.60
44063;DHT22;29727;47.606;19.130;2022-07-29T10:15:27;33.50;38.90
44063;DHT22;29727;47.606;19.130;2022-07-29T10:17:54;33.60;38.10
44063;DHT22;29727;47.606;19.130;2022-07-29T10:20:20;33.50;37.80
44063;DHT22;29727;47.606;19.130;2022-07-29T10:22:47;33.40;39.20
44063;DHT22;29727;47.606;19.130;2022-07-29T10:25:14;33.30;39.40
44063;DHT22;29727;47.606;19.130;2022-07-29T10:27:40;33.50;39.10
44063;DHT22;29727;47.606;19.130;2022-07-29T10:30:06;33.40;40.20
44063;DHT22;29727;47.606;19.130;2022-07-29T10:44:03;34.30;36.60
44063;DHT22;29727;47.606;19.130;2022-07-29T10:46:38;34.40;35.50
44063;DHT22;29727;47.606;19.130;2022-07-29T10:54:53;34.80;35.80
44063;DHT22;29727;47.606;19.130;2022-07-29T10:59:39;34.90;35.60
44063;DHT22;29727;47.606;19.130;2022-07-29T11:07:38;34.80;36.50
44063;DHT22;29727;47.606;19.130;2022-07-29T11:15:16;34.70;37.50
44063;DHT22;29727;47.606;19.130;2022-07-29T11:20:48;34.60;37.10
44063;DHT22;29727;47.606;19.130;2022-07-29T11:23:31;34.50;37.70
44063;DHT22;29727;47.606;19.130;2022-07-29T11:31:41;34.50;38.90
44063;DHT22;29727;47.606;19.130;2022-07-29T11:34:27;34.50;38.20
44063;DHT22;29727;47.606;19.130;2022-07-29T11:39:39;34.60;37.70
44063;DHT22;29727;47.606;19.130;2022-07-29T11:45:06;34.60;37.50
44063;DHT22;29727;47.606;19.130;2022-07-29T11:47:38;34.60;37.60
44063;DHT22;29727;47.606;19.130;2022-07-29T11:50:07;34.50;37.30
44063;DHT22;29727;47.606;19.130;2022-07-29T11:52:41;34.40;38.10
44063;DHT22;29727;47.606;19.130;2022-07-29T11:55:17;34.30;37.40
44063;DHT22;29727;47.606;19.130;2022-07-29T11:58:10;34.30;36.40
44063;DHT22;29727;47.606;19.130;2022-07-29T12:00:39;34.30;36.30
44063;DHT22;29727;47.606;19.130;2022-07-29T12:03:09;34.30;35.10
44063;DHT22;29727;47.606;19.130;2022-07-29T12:05:41;34.30;34.40
44063;DHT22;29727;47.606;19.130;2022-07-29T12:08:26;34.40;35.50
44063;DHT22;29727;47.606;19.130;2022-07-29T12:10:53;34.40;35.70
44063;DHT22;29727;47.606;19.130;2022-07-29T12:13:20;34.50;34.70
44063;DHT22;29727;47.606;19.130;2022-07-29T12:15:54;34.70;34.90
44063;DHT22;29727;47.606;19.130;2022-07-29T12:18:20;34.80;35.80
44063;DHT22;29727;47.606;19.130;2022-07-29T12:20:47;34.90;39.10
44063;DHT22;29727;47.606;19.130;2022-07-29T12:23:14;35.00;34.20
44063;DHT22;29727;47.606;19.130;2022-07-29T12:25:42;35.20;34.70
44063;DHT22;29727;47.606;19.130;2022-07-29T12:28:10;35.40;36.30
44063;DHT22;29727;47.606;19.130;2022-07-29T12:30:48;35.50;34.50
44063;DHT22;29727;47.606;19.130;2022-07-29T12:33:23;35.70;32.90
44063;DHT22;29727;47.606;19.130;2022-07-29T12:35:54;35.90;33.70
44063;DHT22;29727;47.606;19.130;2022-07-29T12:38:20;36.00;34.40
44063;DHT22;29727;47.606;19.130;2022-07-29T12:40:47;36.20;33.30
44063;DHT22;29727;47.606;19.130;2022-07-29T12:43:15;36.30;34.00
44063;DHT22;29727;47.606;19.130;2022-07-29T12:45:50;36.40;33.40
44063;DHT22;29727;47.606;19.130;2022-07-29T12:48:17;36.50;32.20
44063;DHT22;29727;47.606;19.130;2022-07-29T12:53:19;36.70;33.40
44063;DHT22;29727;47.606;19.130;2022-07-29T12:55:47;36.80;34.00
44063;DHT22;29727;47.606;19.130;2022-07-29T12:58:35;36.90;31.20
44063;DHT22;29727;47.606;19.130;2022-07-29T13:03:40;36.90;33.80
44063;DHT22;29727;47.606;19.130;2022-07-29T13:06:06;37.00;33.20
44063;DHT22;29727;47.606;19.130;2022-07-29T13:08:32;37.00;32.80
44063;DHT22;29727;47.606;19.130;2022-07-29T13:10:57;37.10;32.70
44063;DHT22;29727;47.606;19.130;2022-07-29T13:13:23;37.10;32.90
44063;DHT22;29727;47.606;19.130;2022-07-29T13:16:05;37.20;33.30
44063;DHT22;29727;47.606;19.130;2022-07-29T13:18:34;37.10;34.00
44063;DHT22;29727;47.606;19.130;2022-07-29T13:21:14;37.10;34.60
44063;DHT22;29727;47.606;19.130;2022-07-29T13:23:40;37.10;33.30
44063;DHT22;29727;47.606;19.130;2022-07-29T13:26:10;37.00;32.40
44063;DHT22;29727;47.606;19.130;2022-07-29T13:28:37;37.00;31.90
44063;DHT22;29727;47.606;19.130;2022-07-29T13:31:03;37.00;31.40
44063;DHT22;29727;47.606;19.130;2022-07-29T13:33:30;36.90;30.90
44063;DHT22;29727;47.606;19.130;2022-07-29T13:35:56;36.90;31.10
44063;DHT22;29727;47.606;19.130;2022-07-29T13:38:22;36.80;31.70
44063;DHT22;29727;47.606;19.130;2022-07-29T13:40:47;36.80;31.70
44063;DHT22;29727;47.606;19.130;2022-07-29T13:43:13;36.90;33.90
44063;DHT22;29727;47.606;19.130;2022-07-29T13:45:39;36.90;33.80
44063;DHT22;29727;47.606;19.130;2022-07-29T13:48:05;37.00;32.10
44063;DHT22;29727;47.606;19.130;2022-07-29T13:50:32;37.10;33.40
44063;DHT22;29727;47.606;19.130;2022-07-29T13:52:58;37.20;31.10
44063;DHT22;29727;47.606;19.130;2022-07-29T13:55:24;37.20;33.80
44063;DHT22;29727;47.606;19.130;2022-07-29T13:57:49;37.30;31.70
44063;DHT22;29727;47.606;19.130;2022-07-29T14:00:15;37.30;30.50
44063;DHT22;29727;47.606;19.130;2022-07-29T14:02:42;37.30;32.10
44063;DHT22;29727;47.606;19.130;2022-07-29T14:05:08;37.30;31.00
44063;DHT22;29727;47.606;19.130;2022-07-29T14:07:36;37.20;31.60
44063;DHT22;29727;47.606;19.130;2022-07-29T14:10:03;37.20;32.90
44063;DHT22;29727;47.606;19.130;2022-07-29T14:12:29;37.00;32.60
44063;DHT22;29727;47.606;19.130;2022-07-29T14:14:55;36.90;33.50
44063;DHT22;29727;47.606;19.130;2022-07-29T14:17:21;36.90;31.90
44063;DHT22;29727;47.606;19.130;2022-07-29T14:19:47;36.70;30.90
44063;DHT22;29727;47.606;19.130;2022-07-29T14:22:12;36.60;31.40
44063;DHT22;29727;47.606;19.130;2022-07-29T14:24:38;36.50;33.80
44063;DHT22;29727;47.606;19.130;2022-07-29T14:27:05;36.50;34.50
44063;DHT22;29727;47.606;19.130;2022-07-29T14:29:31;36.40;33.40
44063;DHT22;29727;47.606;19.130;2022-07-29T14:31:57;36.40;34.30
44063;DHT22;29727;47.606;19.130;2022-07-29T14:34:23;36.30;31.60
44063;DHT22;29727;47.606;19.130;2022-07-29T14:36:49;36.30;34.40
44063;DHT22;29727;47.606;19.130;2022-07-29T14:39:15;36.30;33.10
44063;DHT22;29727;47.606;19.130;2022-07-29T14:41:42;36.30;33.70
44063;DHT22;29727;47.606;19.130;2022-07-29T14:44:08;36.30;33.00
44063;DHT22;29727;47.606;19.130;2022-07-29T14:46:34;36.30;32.40
44063;DHT22;29727;47.606;19.130;2022-07-29T14:48:59;36.30;31.90
44063;DHT22;29727;47.606;19.130;2022-07-29T14:51:25;36.30;32.10
44063;DHT22;29727;47.606;19.130;2022-07-29T14:53:51;36.30;33.00
44063;DHT22;29727;47.606;19.130;2022-07-29T14:56:17;36.20;32.60
44063;DHT22;29727;47.606;19.130;2022-07-29T14:58:43;36.20;33.00
44063;DHT22;29727;47.606;19.130;2022-07-29T15:01:08;36.20;31.90
44063;DHT22;29727;47.606;19.130;2022-07-29T15:03:34;36.20;32.50
44063;DHT22;29727;47.606;19.130;2022-07-29T15:06:00;36.20;33.10
44063;DHT22;29727;47.606;19.130;2022-07-29T15:08:26;36.10;33.40
44063;DHT22;29727;47.606;19.130;2022-07-29T15:10:53;36.10;33.20
44063;DHT22;29727;47.606;19.130;2022-07-29T15:13:19;36.10;32.70
44063;DHT22;29727;47.606;19.130;2022-07-29T15:15:45;36.10;33.60
44063;DHT22;29727;47.606;19.130;2022-07-29T15:18:10;36.10;33.10
44063;DHT22;29727;47.606;19.130;2022-07-29T15:20:36;36.10;32.00
44063;DHT22;29727;47.606;19.130;2022-07-29T15:23:02;36.10;31.90
44063;DHT22;29727;47.606;19.130;2022-07-29T15:25:29;36.00;31.50
44063;DHT22;29727;47.606;19.130;2022-07-29T15:27:55;36.00;31.50
44063;DHT22;29727;47.606;19.130;2022-07-29T15:30:21;35.90;32.00
44063;DHT22;29727;47.606;19.130;2022-07-29T15:32:47;35.90;32.50
44063;DHT22;29727;47.606;19.130;2022-07-29T15:35:13;35.90;31.40
44063;DHT22;29727;47.606;19.130;2022-07-29T15:37:39;35.80;32.40
44063;DHT22;29727;47.606;19.130;2022-07-29T15:40:06;35.80;32.00
44063;DHT22;29727;47.606;19.130;2022-07-29T15:42:31;35.80;31.60
44063;DHT22;29727;47.606;19.130;2022-07-29T15:45:00;35.80;31.10
44063;DHT22;29727;47.606;19.130;2022-07-29T15:47:28;35.80;31.90
44063;DHT22;29727;47.606;19.130;2022-07-29T15:49:54;35.80;32.50
44063;DHT22;29727;47.606;19.130;2022-07-29T15:52:21;35.70;33.00
44063;DHT22;29727;47.606;19.130;2022-07-29T15:54:46;35.70;33.00
44063;DHT22;29727;47.606;19.130;2022-07-29T15:57:12;35.70;32.10
44063;DHT22;29727;47.606;19.130;2022-07-29T15:59:38;35.70;32.60
44063;DHT22;29727;47.606;19.130;2022-07-29T16:02:04;35.70;32.00
44063;DHT22;29727;47.606;19.130;2022-07-29T16:04:30;35.70;30.90
44063;DHT22;29727;47.606;19.130;2022-07-29T16:06:56;35.60;32.40
44063;DHT22;29727;47.606;19.130;2022-07-29T16:09:22;35.60;33.20
44063;DHT22;29727;47.606;19.130;2022-07-29T16:11:48;35.60;34.00
44063;DHT22;29727;47.606;19.130;2022-07-29T16:14:18;35.50;33.40
44063;DHT22;29727;47.606;19.130;2022-07-29T16:16:44;35.50;32.60
44063;DHT22;29727;47.606;19.130;2022-07-29T16:19:09;35.40;32.60
44063;DHT22;29727;47.606;19.130;2022-07-29T16:21:36;35.40;32.60
44063;DHT22;29727;47.606;19.130;2022-07-29T16:24:06;35.40;32.50
44063;DHT22;29727;47.606;19.130;2022-07-29T16:26:32;35.30;32.70
44063;DHT22;29727;47.606;19.130;2022-07-29T16:28:57;35.30;33.60
44063;DHT22;29727;47.606;19.130;2022-07-29T16:31:24;35.20;32.60